Time;durP1;ratioP1;P1;durP2;ratioP2;P2;SDS_P1;SDS_P2;PMS_P1;PMS_P2;Temp;Humidity;BMP_temperature;BMP_pressure;BME280_temperature;BME280_humidity;BME280_pressure;Samples;Min_cycle;Max_cycle;Signal;HPM_P1;HPM_P2
2022/08/24 00:00:07;;;;;;;7.07;2.70;;;;;;;18.46;61.78;101351.66;5029604;28;20049;-68
2022/08/24 00:02:34;;;;;;;11.55;3.47;;;;;;;18.48;61.71;101344.16;5014907;28;20513;-68
2022/08/24 00:05:01;;;;;;;10.88;3.10;;;;;;;18.40;61.97;101352.44;5013160;28;20042;-68
2022/08/24 00:07:27;;;;;;;8.98;3.42;;;;;;;18.41;62.26;101353.28;5013274;28;20498;-68
2022/08/24 00:09:54;;;;;;;12.63;3.75;;;;;;;18.38;62.15;101351.81;5013055;28;20073;-68
2022/08/24 00:12:21;;;;;;;10.65;3.15;;;;;;;18.34;62.34;101347.78;5013374;28;20080;-68
2022/08/24 00:14:47;;;;;;;7.82;3.45;;;;;;;18.46;61.86;101348.13;5022578;28;20065;-68
2022/08/24 00:17:15;;;;;;;20.70;3.63;;;;;;;18.38;62.34;101351.81;5032844;28;20073;-68
2022/08/24 00:19:42;;;;;;;14.07;2.80;;;;;;;18.39;62.30;101360.81;5033443;28;20133;-68
2022/08/24 00:22:09;;;;;;;9.90;3.47;;;;;;;18.38;62.29;101350.97;5033079;28;20128;-68
2022/08/24 00:24:35;;;;;;;10.55;3.30;;;;;;;18.31;62.55;101359.91;5033167;28;20493;-68
2022/08/24 00:27:03;;;;;;;11.15;3.33;;;;;;;18.33;62.66;101364.28;5032632;28;20525;-68
2022/08/24 00:29:29;;;;;;;17.17;3.78;;;;;;;18.30;62.60;101358.22;5030921;28;20045;-68
2022/08/24 00:31:56;;;;;;;9.73;3.10;;;;;;;18.31;62.64;101359.91;5018992;28;20065;-68
2022/08/24 00:34:22;;;;;;;14.93;3.33;;;;;;;18.33;62.77;101356.16;5012631;28;20455;-69
2022/08/24 00:36:49;;;;;;;11.05;3.00;;;;;;;18.26;62.87;101353.38;5012417;28;20106;-68
2022/08/24 00:39:16;;;;;;;12.70;3.22;;;;;;;18.22;63.24;101362.94;5018632;28;20046;-69
2022/08/24 00:41:45;;;;;;;10.18;3.08;;;;;;;18.22;63.09;101357.53;5032254;28;20137;-68
2022/08/24 00:44:13;;;;;;;9.88;3.38;;;;;;;18.25;63.16;101357.13;5031059;28;20080;-68
2022/08/24 00:46:43;;;;;;;7.75;2.75;;;;;;;18.21;63.55;101364.84;5029564;28;20065;-68
2022/08/24 00:49:18;;;;;;;7.97;3.00;;;;;;;18.19;63.69;101358.75;5027878;28;20559;-68
2022/08/24 00:51:54;;;;;;;8.95;2.97;;;;;;;18.11;64.06;101367.00;5031310;28;20065;-68
2022/08/24 00:54:24;;;;;;;8.77;3.83;;;;;;;18.11;63.68;101360.75;5031042;28;20353;-68
2022/08/24 00:56:55;;;;;;;9.95;3.08;;;;;;;18.15;63.70;101359.34;5032086;28;20511;-68
2022/08/24 00:59:29;;;;;;;11.80;3.30;;;;;;;18.18;63.60;101367.09;5009261;28;20476;-68
2022/08/24 01:02:04;;;;;;;10.57;3.50;;;;;;;18.17;63.61;101359.97;5010846;28;20058;-68
2022/08/24 01:04:50;;;;;;;13.50;4.07;;;;;;;18.12;64.04;101359.69;5012310;28;20389;-68
2022/08/24 01:07:26;;;;;;;12.38;3.42;;;;;;;18.12;63.99;101357.81;5011864;28;20129;-68
2022/08/24 01:09:55;;;;;;;13.85;3.50;;;;;;;18.05;64.02;101363.19;5011894;28;20137;-68
2022/08/24 01:12:24;;;;;;;13.63;3.83;;;;;;;18.10;64.07;101365.34;5014026;28;20479;-68
2022/08/24 01:14:51;;;;;;;10.73;3.75;;;;;;;18.08;64.22;101361.97;5030704;28;20053;-68
2022/08/24 01:20:07;;;;;;;8.80;3.65;;;;;;;18.17;63.76;101358.13;5025802;28;20484;-68
2022/08/24 01:22:55;;;;;;;9.23;3.40;;;;;;;18.14;63.87;101354.91;5042503;28;20072;-69
2022/08/24 01:25:25;;;;;;;12.85;4.13;;;;;;;18.09;64.34;101355.47;5023419;28;20060;-68
2022/08/24 01:27:54;;;;;;;9.95;3.63;;;;;;;18.05;64.23;101356.91;5005641;28;20093;-68
2022/08/24 01:30:22;;;;;;;9.70;3.30;;;;;;;18.02;64.70;101360.00;5011380;28;20482;-68
2022/08/24 01:33:05;;;;;;;13.68;3.63;;;;;;;18.03;64.50;101359.84;5011509;28;20052;-68
2022/08/24 01:35:35;;;;;;;12.45;3.92;;;;;;;18.06;64.17;101358.59;5011689;28;20549;-68
2022/08/24 01:38:07;;;;;;;12.60;3.60;;;;;;;18.02;64.57;101360.00;5010720;28;20077;-68
2022/08/24 01:40:35;;;;;;;;;;;;;;;17.99;64.52;101358.50;5012348;28;20133;-68
2022/08/24 01:43:05;;;;;;;12.27;3.55;;;;;;;17.95;64.75;101365.38;4993639;28;19927;-68
2022/08/24 01:45:32;;;;;;;7.30;3.53;;;;;;;17.98;64.72;101362.28;5011593;28;20137;-68
2022/08/24 01:47:58;;;;;;;11.48;3.53;;;;;;;18.04;64.60;101361.50;5011616;28;20524;-68
2022/08/24 01:50:25;;;;;;;9.98;3.65;;;;;;;18.07;64.42;101369.28;5011580;28;20564;-68
2022/08/24 01:52:52;;;;;;;14.32;4.20;;;;;;;18.02;64.52;101370.88;5011501;28;20549;-68
2022/08/24 01:55:35;;;;;;;11.63;3.67;;;;;;;17.94;64.96;101365.56;5011017;28;20463;-68
2022/08/24 01:58:03;;;;;;;9.57;3.75;;;;;;;17.91;65.23;101366.78;5012694;28;20128;-68
2022/08/24 02:00:29;;;;;;;13.20;4.13;;;;;;;17.93;65.17;101367.47;5011172;28;20487;-68
2022/08/24 02:02:56;;;;;;;13.85;3.70;;;;;;;17.84;65.87;101374.03;5010946;28;20129;-68
2022/08/24 02:05:24;;;;;;;15.30;4.38;;;;;;;17.81;65.91;101369.00;5010794;28;20077;-68
2022/08/24 02:07:51;;;;;;;8.55;3.45;;;;;;;17.80;65.92;101372.75;5010881;28;20148;-68
2022/08/24 02:10:18;;;;;;;12.70;3.97;;;;;;;17.75;66.13;101372.47;5010946;28;20125;-68
2022/08/24 02:12:56;;;;;;;12.23;4.30;;;;;;;17.74;66.27;101376.22;5012158;28;20091;-68
2022/08/24 02:15:41;;;;;;;15.38;4.00;;;;;;;17.81;66.02;101377.13;5019334;28;20052;-68
2022/08/24 02:18:10;;;;;;;14.00;4.22;;;;;;;17.82;66.03;101376.09;5010939;28;20050;-68
2022/08/24 02:20:41;;;;;;;10.77;4.00;;;;;;;17.72;66.63;101378.31;5011157;28;20050;-68
2022/08/24 02:23:08;;;;;;;14.35;4.70;;;;;;;17.66;66.96;101373.63;5012557;28;20550;-68
2022/08/24 02:25:35;;;;;;;14.60;5.05;;;;;;;17.66;67.01;101370.91;5015736;28;20052;-68
2022/08/24 02:28:01;;;;;;;14.18;5.25;;;;;;;17.70;67.20;101385.78;5011784;28;20058;-68
2022/08/24 02:30:28;;;;;;;15.25;5.47;;;;;;;17.66;67.43;101379.06;5010782;28;20054;-68
2022/08/24 02:32:56;;;;;;;15.75;6.00;;;;;;;17.31;68.59;101376.09;5010619;28;20070;-68
2022/08/24 02:35:23;;;;;;;20.35;9.75;;;;;;;17.04;70.35;101381.16;4993341;28;20050;-68
2022/08/24 02:37:51;;;;;;;27.13;10.15;;;;;;;17.01;70.67;101381.53;5010233;28;20126;-68
2022/08/24 02:40:17;;;;;;;25.88;11.43;;;;;;;17.16;70.58;101372.53;5007808;28;20125;-68
2022/08/24 02:42:44;;;;;;;27.27;12.50;;;;;;;17.12;70.87;101372.91;5010043;28;20445;-68
2022/08/24 02:45:11;;;;;;;28.05;15.00;;;;;;;17.13;71.33;101369.19;5010263;28;20129;-68
2022/08/24 02:47:38;;;;;;;29.85;15.32;;;;;;;17.25;71.00;101374.97;5009841;28;20077;-68
2022/08/24 02:50:07;;;;;;;36.65;16.25;;;;;;;17.33;70.80;101374.03;5010485;28;20405;-68
2022/08/24 02:52:36;;;;;;;36.05;16.63;;;;;;;17.44;70.81;101372.72;5009464;28;20050;-67
2022/08/24 02:55:03;;;;;;;34.33;17.90;;;;;;;17.52;70.18;101375.34;5009831;28;20084;-68
2022/08/24 02:57:29;;;;;;;48.13;21.08;;;;;;;17.19;71.84;101366.75;5009438;28;20137;-68
2022/08/24 02:59:56;;;;;;;43.72;22.85;;;;;;;17.26;72.18;101365.78;5011451;28;20092;-68
2022/08/24 03:02:23;;;;;;;38.40;21.30;;;;;;;17.43;71.11;101371.88;5026344;28;20137;-68
2022/08/24 03:04:49;;;;;;;52.25;23.52;;;;;;;17.44;71.19;101364.59;5024858;28;20045;-68
2022/08/24 03:07:16;;;;;;;46.85;21.92;;;;;;;17.45;71.28;101367.13;5027761;28;20137;-68
2022/08/24 03:09:42;;;;;;;54.90;22.65;;;;;;;17.53;70.76;101367.00;5030506;28;20130;-68
2022/08/24 03:12:09;;;;;;;43.45;23.45;;;;;;;17.58;70.75;101367.28;5022307;28;20128;-68
2022/08/24 03:14:36;;;;;;;46.05;22.20;;;;;;;17.59;70.62;101358.09;5011332;28;20129;-68
2022/08/24 03:17:02;;;;;;;48.85;23.58;;;;;;;17.63;70.38;101361.28;5009736;28;20133;-68
2022/08/24 03:19:29;;;;;;;46.45;22.02;;;;;;;17.59;70.72;101355.41;5012020;28;20050;-68
2022/08/24 03:21:56;;;;;;;51.63;22.52;;;;;;;17.61;70.30;101360.63;5011602;28;20133;-68
2022/08/24 03:24:23;;;;;;;41.85;20.95;;;;;;;17.56;70.60;101363.91;5021530;28;20573;-68
2022/08/24 03:26:49;;;;;;;45.00;21.25;;;;;;;17.55;70.65;101372.25;5029513;28;20084;-68
2022/08/24 03:29:16;;;;;;;51.85;21.83;;;;;;;17.52;71.04;101373.47;5020980;28;20046;-68
2022/08/24 03:31:43;;;;;;;41.22;21.48;;;;;;;17.52;70.50;101370.75;5010634;28;20132;-68
2022/08/24 03:34:12;;;;;;;37.88;21.75;;;;;;;17.69;70.16;101368.66;5009705;28;20112;-68
2022/08/24 03:36:40;;;;;;;39.67;21.15;;;;;;;17.70;70.10;101372.22;5009835;28;20048;-68
2022/08/24 03:39:07;;;;;;;49.30;22.20;;;;;;;17.73;69.97;101374.53;4998726;28;20128;-68
2022/08/24 03:41:33;;;;;;;40.95;21.20;;;;;;;17.75;69.69;101367.91;5034109;28;20540;-68
2022/08/24 03:44:02;;;;;;;46.53;22.63;;;;;;;17.74;69.93;101359.94;5023211;28;20125;-68
2022/08/24 03:46:35;;;;;;;38.85;21.55;;;;;;;17.75;69.93;101372.47;5014497;28;20056;-68
2022/08/24 03:49:05;;;;;;;52.25;22.98;;;;;;;17.67;70.08;101367.16;5013759;28;20482;-68
2022/08/24 03:51:32;;;;;;;45.15;21.27;;;;;;;17.62;70.30;101377.75;5014716;28;20144;-69
2022/08/24 03:53:58;;;;;;;44.42;21.75;;;;;;;17.64;70.06;101372.97;5014039;28;20526;-69
2022/08/24 03:56:26;;;;;;;43.13;21.55;;;;;;;17.62;69.98;101377.75;5016021;28;20129;-68
2022/08/24 03:58:53;;;;;;;42.03;20.77;;;;;;;17.60;70.02;101372.50;5015531;28;20046;-68
2022/08/24 04:01:21;;;;;;;38.72;22.33;;;;;;;17.59;70.29;101378.97;5013039;28;20060;-68
2022/08/24 04:03:48;;;;;;;37.88;21.25;;;;;;;17.58;70.14;101388.16;5013556;28;20129;-69
2022/08/24 04:06:18;;;;;;;38.70;21.83;;;;;;;17.58;69.89;101389.00;5013613;28;20482;-69
2022/08/24 04:08:45;;;;;;;42.30;22.50;;;;;;;17.52;70.11;101389.75;5010119;28;20560;-69
2022/08/24 04:11:18;;;;;;;39.45;20.50;;;;;;;17.56;70.07;101392.91;5014633;28;20142;-69
2022/08/24 04:13:45;;;;;;;47.33;22.20;;;;;;;17.62;69.96;101392.16;5014492;28;20042;-69
2022/08/24 04:16:16;;;;;;;40.25;21.95;;;;;;;17.63;69.91;101384.88;4997062;28;20117;-69
2022/08/24 04:18:43;;;;;;;39.70;22.05;;;;;;;17.59;70.11;101390.66;5014116;28;20046;-69
2022/08/24 04:21:23;;;;;;;49.15;21.83;;;;;;;17.64;69.93;101398.22;5013578;28;20088;-69
2022/08/24 04:23:51;;;;;;;38.35;22.30;;;;;;;17.62;70.26;101404.91;5013250;28;20080;-69
2022/08/24 04:26:19;;;;;;;39.40;22.02;;;;;;;17.66;69.87;101396.19;5012250;28;20136;-69
2022/08/24 04:29:08;;;;;;;41.13;22.70;;;;;;;17.66;70.04;101400.75;5012273;28;20050;-69
2022/08/24 04:31:37;;;;;;;45.88;23.05;;;;;;;17.78;69.51;101393.78;5012239;28;20133;-69
2022/08/24 04:34:04;;;;;;;37.88;22.13;;;;;;;17.71;69.30;101398.31;5011684;28;20046;-69
2022/08/24 04:36:31;;;;;;;47.08;23.33;;;;;;;17.70;69.76;101397.47;5012696;28;20129;-69
2022/08/24 04:38:59;;;;;;;40.92;22.40;;;;;;;17.69;69.54;101403.09;5011933;28;20454;-69
2022/08/24 04:41:26;;;;;;;42.30;23.17;;;;;;;17.65;69.48;101409.91;5012418;28;20104;-69
2022/08/24 04:43:58;;;;;;;39.55;21.17;;;;;;;17.72;69.54;101410.88;5013284;28;20096;-69
2022/08/24 04:46:25;;;;;;;38.88;21.30;;;;;;;17.66;69.59;101406.19;5012301;28;20108;-69
2022/08/24 04:48:52;;;;;;;43.45;21.90;;;;;;;17.64;69.81;101405.53;5012490;28;20092;-69
2022/08/24 04:51:20;;;;;;;37.60;23.58;;;;;;;17.66;69.74;101407.03;5010226;28;20140;-69
2022/08/24 04:53:47;;;;;;;47.10;25.15;;;;;;;17.66;69.83;101404.31;5012379;28;20132;-69
2022/08/24 04:56:21;;;;;;;43.17;24.95;;;;;;;17.71;69.43;101407.28;5012652;28;20391;-69
2022/08/24 04:58:49;;;;;;;42.60;23.25;;;;;;;17.71;69.48;101410.00;5011752;28;20125;-69
2022/08/24 05:01:20;;;;;;;37.55;21.40;;;;;;;17.71;69.48;101415.44;5012149;28;20054;-69
2022/08/24 05:03:49;;;;;;;36.47;21.48;;;;;;;17.71;69.62;101410.00;4995521;28;20081;-69
2022/08/24 05:06:20;;;;;;;36.28;20.77;;;;;;;17.76;69.10;101417.59;5004573;28;20128;-69
2022/08/24 05:08:47;;;;;;;38.83;20.85;;;;;;;17.83;68.88;101418.50;5012501;28;20129;-69
2022/08/24 05:11:16;;;;;;;35.08;19.77;;;;;;;17.88;68.76;101421.47;5012839;28;20137;-69
2022/08/24 05:13:43;;;;;;;41.00;21.50;;;;;;;17.90;68.63;101424.84;5013768;28;20041;-69
2022/08/24 05:16:12;;;;;;;38.17;21.23;;;;;;;17.88;68.63;101426.91;5011828;28;20064;-69
2022/08/24 05:18:40;;;;;;;37.47;20.58;;;;;;;17.96;68.26;101434.06;5005300;28;20053;-69
2022/08/24 05:21:11;;;;;;;33.08;19.42;;;;;;;18.01;68.18;101435.19;5012024;28;20144;-69
2022/08/24 05:23:38;;;;;;;38.75;20.08;;;;;;;18.06;67.70;101438.19;5011982;28;20536;-69
2022/08/24 05:26:13;;;;;;;37.80;20.33;;;;;;;18.01;67.56;101446.06;5011886;28;20038;-69
2022/08/24 05:28:40;;;;;;;36.85;20.17;;;;;;;18.17;67.45;101447.72;5012479;28;20129;-69
2022/08/24 05:31:08;;;;;;;41.53;21.73;;;;;;;18.18;67.29;101440.44;5011137;28;20125;-69
2022/08/24 05:33:35;;;;;;;39.65;19.05;;;;;;;18.24;66.91;101436.94;5011690;28;20120;-69
2022/08/24 05:36:03;;;;;;;40.35;18.80;;;;;;;18.29;66.64;101443.44;5012235;28;20073;-69
2022/08/24 05:38:32;;;;;;;35.17;19.63;;;;;;;18.35;66.67;101446.44;5011549;28;20129;-69
2022/08/24 05:41:04;;;;;;;32.75;18.85;;;;;;;18.43;66.28;101447.13;5011810;28;20108;-69
2022/08/24 05:43:31;;;;;;;32.13;17.38;;;;;;;18.50;65.88;101445.31;5011535;28;20142;-69
2022/08/24 05:45:57;;;;;;;38.92;19.50;;;;;;;18.58;65.80;101443.50;5012061;28;20426;-69
2022/08/24 05:48:24;;;;;;;56.10;19.08;;;;;;;18.59;65.62;101439.78;5011693;28;20065;-69
2022/08/24 05:50:52;;;;;;;47.90;19.50;;;;;;;18.65;65.57;101449.84;5011115;28;20049;-69
2022/08/24 05:53:19;;;;;;;33.05;18.25;;;;;;;18.69;65.64;101451.97;5011049;28;20069;-69
2022/08/24 05:55:45;;;;;;;31.17;18.67;;;;;;;18.71;65.38;101454.50;5009349;28;20536;-69
2022/08/24 05:58:13;;;;;;;35.95;17.45;;;;;;;18.51;66.17;101449.75;5011379;28;20048;-69
2022/08/24 06:00:49;;;;;;;33.65;17.88;;;;;;;18.53;66.13;101454.97;4995330;28;20393;-70
2022/08/24 06:03:15;;;;;;;34.38;17.70;;;;;;;18.57;66.07;101455.41;5011547;28;20228;-69
2022/08/24 06:05:43;;;;;;;37.85;17.35;;;;;;;18.44;66.37;101458.84;5019561;28;20462;-69
2022/08/24 06:08:10;;;;;;;30.90;17.48;;;;;;;18.63;65.93;101454.66;5010714;28;20077;-69
2022/08/24 06:10:46;;;;;;;30.02;17.48;;;;;;;18.75;65.80;101455.78;5010950;28;20092;-69
2022/08/24 06:13:13;;;;;;;33.80;19.33;;;;;;;18.96;65.21;101460.34;5010827;28;20057;-68
2022/08/24 06:15:41;;;;;;;38.65;20.55;;;;;;;19.03;64.77;101461.25;5009935;28;20088;-68
2022/08/24 06:18:13;;;;;;;34.75;18.35;;;;;;;19.05;64.99;101461.91;5007694;28;20439;-69
2022/08/24 06:20:41;;;;;;;36.92;18.30;;;;;;;19.13;64.23;101458.19;5011014;28;20050;-69
2022/08/24 06:23:11;;;;;;;37.22;18.33;;;;;;;19.42;63.43;101463.41;5011554;28;20054;-68
2022/08/24 06:28:24;;;;;;;31.83;17.38;;;;;;;19.66;62.35;101458.50;5010986;28;20076;-69
2022/08/24 06:31:04;;;;;;;30.63;15.93;;;;;;;19.63;62.48;101458.91;5011325;28;20524;-69
2022/08/24 06:33:30;;;;;;;29.50;15.27;;;;;;;19.61;62.45;101467.25;5010721;28;20053;-69
2022/08/24 06:35:57;;;;;;;29.95;15.73;;;;;;;19.59;62.41;101454.88;5010539;28;20069;-69
2022/08/24 06:38:24;;;;;;;31.25;16.33;;;;;;;19.26;63.42;101471.88;5010212;28;20565;-69
2022/08/24 06:40:51;;;;;;;30.08;15.35;;;;;;;19.66;62.12;101469.38;5009993;28;20064;-69
2022/08/24 06:43:17;;;;;;;36.47;15.82;;;;;;;19.67;61.78;101465.59;5011489;28;20133;-69
2022/08/24 06:45:45;;;;;;;25.40;15.52;;;;;;;19.46;62.51;101472.00;5011365;28;20049;-69
2022/08/24 06:48:11;;;;;;;30.65;15.57;;;;;;;19.52;62.49;101473.06;5010632;28;20101;-69
2022/08/24 06:50:38;;;;;;;30.73;14.70;;;;;;;19.60;62.67;101475.63;5011435;28;20072;-69
2022/08/24 06:53:05;;;;;;;27.65;15.18;;;;;;;19.66;62.24;101480.28;5010869;28;20069;-69
2022/08/24 06:55:32;;;;;;;27.88;15.52;;;;;;;19.84;61.61;101486.03;5010329;28;20062;-69
2022/08/24 06:57:58;;;;;;;26.23;13.95;;;;;;;19.84;61.60;101488.75;5011165;28;20462;-69
2022/08/24 07:00:25;;;;;;;36.33;15.45;;;;;;;19.79;61.22;101491.22;5011204;28;20457;-69
2022/08/24 07:02:51;;;;;;;31.60;14.95;;;;;;;19.67;62.26;101481.94;5011619;28;20058;-69
2022/08/24 07:05:18;;;;;;;27.55;15.10;;;;;;;19.75;61.88;101489.97;5011529;28;20050;-68
2022/08/24 07:07:45;;;;;;;27.42;14.80;;;;;;;19.85;61.71;101495.88;5010802;28;20046;-69
2022/08/24 07:10:12;;;;;;;31.02;14.75;;;;;;;19.91;61.48;101500.50;5010501;28;20812;-69
2022/08/24 07:12:38;;;;;;;45.17;16.13;;;;;;;19.70;62.18;101490.56;5012314;28;20085;-68
2022/08/24 07:15:05;;;;;;;31.13;14.68;;;;;;;19.82;61.61;101490.81;5014904;28;20069;-68
2022/08/24 07:17:42;;;;;;;32.30;14.10;;;;;;;19.98;61.25;101486.09;5013597;28;20097;-69
2022/08/24 07:20:09;;;;;;;29.42;14.52;;;;;;;20.08;60.83;101494.72;5014008;28;20056;-69
2022/08/24 07:22:35;;;;;;;25.63;13.90;;;;;;;20.27;60.35;101493.06;5013718;28;20129;-69
2022/08/24 07:25:03;;;;;;;28.90;15.48;;;;;;;19.98;61.26;101497.81;5008045;28;20084;-69
2022/08/24 07:27:30;;;;;;;26.45;13.80;;;;;;;20.34;59.79;101483.88;5014111;28;20129;-69
2022/08/24 07:29:56;;;;;;;32.40;14.07;;;;;;;20.41;59.82;101486.63;5014285;28;20128;-67
2022/08/24 07:32:43;;;;;;;29.83;14.57;;;;;;;20.27;60.53;101493.91;5013924;28;20056;-69
2022/08/24 07:35:09;;;;;;;28.25;15.43;;;;;;;20.52;59.28;101502.38;5014925;28;20046;-68
2022/08/24 07:37:36;;;;;;;27.08;14.88;;;;;;;20.32;59.47;101498.75;5013838;28;20513;-68
2022/08/24 07:40:08;;;;;;;27.83;14.32;;;;;;;20.27;59.39;101499.38;5014048;28;20074;-69
2022/08/24 07:42:34;;;;;;;23.65;13.60;;;;;;;20.48;59.23;101503.84;5014037;28;20056;-69
2022/08/24 07:45:01;;;;;;;35.78;16.33;;;;;;;20.36;59.67;101503.59;5012910;28;20405;-69
2022/08/24 07:47:28;;;;;;;23.42;13.77;;;;;;;20.17;59.97;101494.28;5013703;28;20163;-69
2022/08/24 07:50:16;;;;;;;24.25;12.80;;;;;;;20.61;58.70;101490.22;5012922;28;20046;-69
2022/08/24 07:52:44;;;;;;;31.15;14.70;;;;;;;20.29;59.53;101501.91;5013881;28;20467;-69
2022/08/24 07:55:12;;;;;;;25.20;13.80;;;;;;;20.46;58.69;101505.13;5019779;28;20072;-69
2022/08/24 07:57:40;;;;;;;28.52;15.18;;;;;;;20.63;58.60;101499.06;5012905;28;20133;-69
2022/08/24 08:00:10;;;;;;;25.50;13.90;;;;;;;20.89;57.60;101511.00;5012929;28;20050;-69
2022/08/24 08:02:38;;;;;;;23.90;13.73;;;;;;;20.74;57.97;101504.94;5021496;28;20433;-69
2022/08/24 08:05:05;;;;;;;24.25;12.73;;;;;;;21.08;56.86;101518.38;5033979;28;20049;-69
2022/08/24 08:07:32;;;;;;;22.60;12.90;;;;;;;21.32;56.39;101514.16;5034480;28;20046;-68
2022/08/24 08:10:00;;;;;;;23.90;13.90;;;;;;;21.32;56.26;101510.56;5031680;28;20541;-68
2022/08/24 08:12:27;;;;;;;27.33;14.38;;;;;;;21.88;55.10;101510.06;5033349;28;20446;-69
2022/08/24 08:14:53;;;;;;;26.10;14.10;;;;;;;22.02;54.52;101516.28;5033442;28;20080;-69
2022/08/24 08:17:20;;;;;;;28.55;13.55;;;;;;;22.16;53.82;101515.16;5033190;28;20441;-69
2022/08/24 08:19:46;;;;;;;27.85;14.15;;;;;;;22.21;53.95;101515.34;5033303;28;20069;-69
2022/08/24 08:24:58;;;;;;;25.70;13.00;;;;;;;22.23;53.09;101515.13;5032927;28;20120;-69
2022/08/24 08:27:25;;;;;;;26.45;13.93;;;;;;;22.29;53.50;101512.38;5033311;28;20055;-69
2022/08/24 08:29:51;;;;;;;23.42;13.90;;;;;;;22.61;53.03;101523.34;5033303;28;20457;-68
2022/08/24 08:32:18;;;;;;;25.13;13.02;;;;;;;22.83;51.92;101515.59;5033235;28;20142;-69
2022/08/24 08:34:46;;;;;;;21.65;12.65;;;;;;;22.67;52.66;101514.25;5032720;28;20053;-68
2022/08/24 08:37:14;;;;;;;17.70;11.52;;;;;;;24.15;49.20;101513.38;5033510;28;20076;-69
2022/08/24 08:39:40;;;;;;;20.58;11.32;;;;;;;24.49;48.27;101513.78;5033042;28;20129;-68
2022/08/24 08:42:30;;;;;;;20.75;10.77;;;;;;;25.94;45.06;101528.75;5029355;28;20045;-69
2022/08/24 08:45:24;;;;;;;15.57;10.52;;;;;;;26.95;42.46;101523.50;5033547;28;20128;-68
2022/08/24 08:48:16;;;;;;;15.98;10.52;;;;;;;26.10;43.80;101524.38;5033728;28;20100;-68
2022/08/24 08:51:03;;;;;;;16.83;9.60;;;;;;;25.77;44.30;101525.09;5033068;28;20378;-68
2022/08/24 08:53:56;;;;;;;14.85;10.40;;;;;;;25.53;45.01;101524.25;5032811;28;20091;-68
2022/08/24 08:56:42;;;;;;;13.23;9.80;;;;;;;25.10;46.02;101531.81;5033424;28;20490;-68
2022/08/24 08:59:09;;;;;;;19.48;9.93;;;;;;;25.73;44.77;101529.41;5033194;28;20129;-69
2022/08/24 09:01:35;;;;;;;16.17;9.05;;;;;;;25.20;45.77;101531.22;5032396;28;20061;-68
2022/08/24 09:04:31;;;;;;;15.00;8.10;;;;;;;24.97;45.90;101532.00;5029420;28;20052;-68
2022/08/24 09:07:36;;;;;;;17.15;8.77;;;;;;;25.14;45.95;101533.00;5039124;28;20050;-69
2022/08/24 09:10:22;;;;;;;14.50;8.75;;;;;;;24.90;46.53;101531.28;4991827;28;20527;-69
2022/08/24 09:12:57;;;;;;;19.35;9.00;;;;;;;24.72;46.75;101523.97;5031441;28;20045;-69
2022/08/24 09:15:49;;;;;;;22.05;9.65;;;;;;;24.49;47.38;101529.41;5032097;28;20041;-68
2022/08/24 09:18:36;;;;;;;17.80;9.23;;;;;;;24.44;48.13;101530.09;5032433;28;20049;-69
2022/08/24 09:21:37;;;;;;;21.15;9.32;;;;;;;24.32;48.05;101529.19;5031556;28;20060;-68
2022/08/24 09:24:15;;;;;;;21.83;9.82;;;;;;;24.58;47.72;101528.84;5031629;28;20065;-69
2022/08/24 09:26:54;;;;;;;21.10;9.38;;;;;;;24.12;48.37;101530.28;5032361;28;20132;-69
2022/08/24 09:29:46;;;;;;;18.05;8.98;;;;;;;24.28;48.29;101536.22;5028007;28;20065;-68
2022/08/24 09:32:30;;;;;;;15.95;9.40;;;;;;;23.96;48.46;101531.75;5032224;28;20076;-68
2022/08/24 09:35:02;;;;;;;20.30;9.10;;;;;;;23.77;48.86;101521.88;5030696;28;20092;-68
2022/08/24 09:38:03;;;;;;;16.50;9.23;;;;;;;23.10;50.48;101529.06;5031761;28;20065;-68
2022/08/24 09:40:41;;;;;;;14.32;8.45;;;;;;;24.03;48.42;101525.38;5031253;28;20448;-68
2022/08/24 09:43:30;;;;;;;15.95;8.45;;;;;;;24.01;48.49;101520.09;5031368;28;20124;-68
2022/08/24 09:46:07;;;;;;;17.98;9.23;;;;;;;23.61;49.48;101525.22;5030085;28;20068;-68
2022/08/24 09:48:38;;;;;;;19.42;9.52;;;;;;;24.14;48.43;101528.16;5037616;28;20041;-68
2022/08/24 09:51:04;;;;;;;16.92;9.48;;;;;;;23.83;49.11;101525.59;5031240;28;20037;-68
2022/08/24 09:53:46;;;;;;;17.90;9.40;;;;;;;24.00;48.95;101521.19;5030829;28;20120;-68
2022/08/24 09:56:25;;;;;;;20.33;9.93;;;;;;;23.66;49.69;101525.34;5030243;28;20128;-69
2022/08/24 09:59:17;;;;;;;20.48;10.60;;;;;;;23.50;49.96;101522.16;5026927;28;20137;-69
2022/08/24 10:02:02;;;;;;;22.08;9.40;;;;;;;23.53;50.20;101522.75;5031697;28;20125;-69
2022/08/24 10:04:43;;;;;;;19.77;9.40;;;;;;;24.53;47.98;101514.97;5031147;28;20037;-69
2022/08/24 10:07:16;;;;;;;19.42;9.77;;;;;;;25.32;45.38;101528.47;5030768;28;20052;-69
2022/08/24 10:09:51;;;;;;;24.42;9.95;;;;;;;25.10;45.75;101515.34;5031452;28;20502;-70
2022/08/24 10:12:20;;;;;;;16.98;10.52;;;;;;;24.10;48.16;101515.16;5031711;28;20055;-69
2022/08/24 10:15:04;;;;;;;20.40;10.00;;;;;;;23.98;48.95;101521.38;5030772;28;20061;-69
2022/08/24 10:17:42;;;;;;;16.30;9.32;;;;;;;23.66;49.13;101509.75;5030211;28;20152;-69
2022/08/24 10:20:25;;;;;;;15.93;9.68;;;;;;;23.59;49.86;101508.16;5030960;28;20128;-69
2022/08/24 10:23:15;;;;;;;22.65;10.07;;;;;;;23.68;49.61;101507.63;5030079;28;20080;-69
2022/08/24 10:25:51;;;;;;;14.67;8.37;;;;;;;24.14;48.44;101519.94;5031569;28;20537;-69
2022/08/24 10:28:35;;;;;;;15.40;8.02;;;;;;;24.26;48.10;101502.69;5031351;28;20147;-69
2022/08/24 10:31:06;;;;;;;20.15;8.70;;;;;;;23.88;48.79;101512.03;5030584;28;20069;-69
2022/08/24 10:34:15;;;;;;;14.65;8.77;;;;;;;23.17;49.47;101511.53;5030324;28;20045;-69
2022/08/24 10:36:56;;;;;;;16.48;8.95;;;;;;;23.32;49.79;101510.34;5030511;28;20128;-70
2022/08/24 10:39:50;;;;;;;21.15;8.80;;;;;;;23.90;48.69;101507.19;5030536;28;20120;-69
2022/08/24 10:45:40;;;;;;;17.80;9.18;;;;;;;25.88;44.36;101504.97;5030419;28;20484;-69
2022/08/24 10:48:29;;;;;;;17.35;9.70;;;;;;;26.18;43.05;101498.44;5017117;28;20071;-69
2022/08/24 10:51:18;;;;;;;25.60;11.55;;;;;;;26.17;43.44;101502.22;5035152;28;20478;-70
2022/08/24 10:53:50;;;;;;;19.98;10.00;;;;;;;25.49;44.82;101501.09;5034664;28;20136;-69
2022/08/24 10:56:19;;;;;;;17.15;10.05;;;;;;;25.87;44.08;101505.22;5034901;28;20054;-69
2022/08/24 10:58:48;;;;;;;25.83;10.70;;;;;;;24.88;46.25;101495.81;5034757;28;20549;-69
2022/08/24 11:01:21;;;;;;;16.73;10.20;;;;;;;25.41;45.01;101502.31;5034142;28;20127;-69
2022/08/24 11:03:58;;;;;;;16.67;10.75;;;;;;;25.01;45.63;101500.28;5034681;28;20046;-69
2022/08/24 11:06:29;;;;;;;24.17;12.52;;;;;;;23.93;48.43;101496.59;5034380;28;20132;-69
2022/08/24 11:09:04;;;;;;;21.33;11.88;;;;;;;23.86;48.79;101501.31;5034877;28;20140;-69
2022/08/24 11:11:43;;;;;;;24.23;12.95;;;;;;;24.05;48.93;101504.03;5034978;28;20148;-69
2022/08/24 11:14:29;;;;;;;19.02;11.73;;;;;;;24.48;47.62;101498.41;5032719;28;20042;-69
2022/08/24 11:17:23;;;;;;;25.30;13.02;;;;;;;24.35;47.61;101495.81;5034663;28;20109;-69
2022/08/24 11:19:51;;;;;;;20.35;12.45;;;;;;;24.55;47.17;101501.88;5031312;28;20400;-69
2022/08/24 11:22:42;;;;;;;17.85;10.38;;;;;;;25.02;46.14;101503.84;5034287;28;20056;-69
2022/08/24 11:25:17;;;;;;;24.13;11.70;;;;;;;25.44;44.91;101501.81;5033451;28;20529;-69
2022/08/24 11:27:51;;;;;;;18.33;10.55;;;;;;;25.55;44.89;101500.97;5032117;28;20129;-69
2022/08/24 11:30:23;;;;;;;18.85;10.98;;;;;;;25.56;44.49;101497.16;5033673;28;20042;-71
2022/08/24 11:33:05;;;;;;;16.27;10.55;;;;;;;25.55;44.83;101505.63;5049403;28;20128;-69
2022/08/24 11:35:34;;;;;;;17.83;10.02;;;;;;;25.70;44.07;101496.91;5028091;28;20064;-69
2022/08/24 11:38:18;;;;;;;17.23;9.65;;;;;;;26.10;43.29;101494.13;5034645;28;20436;-69
2022/08/24 11:40:59;;;;;;;22.13;10.23;;;;;;;27.35;40.20;101492.19;5032710;28;20492;-69
2022/08/24 11:44:04;;;;;;;18.73;10.18;;;;;;;27.64;39.27;101490.06;5033882;28;20485;-69